首页
METAR-TAF:

METAR-TAF

机场 :

路易斯·穆尼奥斯·马林国际机场

圣胡安, 波多黎哥, 美国

纬度: 18-27N, 经度: 066-00W, 海拔: 3米

当前天气观测

该预报发布于1小时和6分钟前的00:56 UTC
风速8节,风向东转东北
温度 28°C
湿度 74%
气压 1013 hPa
能見度: 16.1公里
少量云层高于2000英尺
散云层高于3200英尺

METAR: TJSJ 220056Z 07008KT 10SM FEW020 SCT032 28/23 A2990 RMK AO2 SLP123 VCSH SW W T02780233

时间: 22:02 (02:02 UTC)

预报

该预报发布于2小时和42分钟前的23:20 UTC
预报有效从22日的 00点(UTC)到 22日的 24点(UTC)
风速10节,风向东转东北
能見度: 10公里
散云层高于2500英尺
散云层高于5000英尺
附近有阵雨
从 22日的 0600点(UTC)
风速7节,风向
能見度: 10公里
少量云层高于2600英尺
散云层高于4000英尺
几率 30%
从 22日的 09点(UTC)到 22日的 13点(UTC)
散云层高于2500英尺
多云层高于4000英尺
小阵雨
从 22日的 1300点(UTC)
风速12节,风向东转东北
能見度: 10公里
少量云层高于3000英尺
散云层高于5000英尺

TAF: TJSJ 212320Z 2200/2224 07010KT P6SM VCSH SCT025 SCT050 FM220600 08007KT P6SM FEW026 SCT040 PROB30 2209/2213 -SHRA SCT025 BKN040 FM221300 07012KT P6SM FEW030 SCT050

超过4000个机场的气象观测和天气预报(METAR&TAF报告)。

可查询的气象台以黄色和红色小点在地图上表示。

将鼠标移到小点上方,可查看气象台名称。

然后点击查看天气观测和预报。

如需切换地图:点击带黑十字的绿色按钮放大地图;点击带横线的绿色按钮缩小地图;或者点击绿色箭头查看邻近地区的地图。


METAR-TAF: